This is the latest recevied weather packets stored in our database for station/object YM2KV-13. If no packets are shown the sender has not sent any weather packets the latest 10 day(s).
| Time | Temp. | Humidity | Pressure | Rain* | Wind** | Luminosity | Snow |
|---|---|---|---|---|---|---|---|
| 1777436298 | 6.67° C | 80% | 1030.8 hPa | - | - | - | - |
| 1777435698 | 6.11° C | 82% | 1030.8 hPa | - | - | - | - |
| 1777435098 | 6.11° C | 82% | 1030.6 hPa | - | - | - | - |
| 1777434499 | 6.11° C | 83% | 1030.5 hPa | - | - | - | - |
| 1777433898 | 6.11° C | 83% | 1030.5 hPa | - | - | - | - |
| 1777433298 | 6.11° C | 83% | 1030.4 hPa | - | - | - | - |
| 1777432698 | 6.11° C | 83% | 1030.2 hPa | - | - | - | - |
| 1777432098 | 6.11° C | 84% | 1030.2 hPa | - | - | - | - |
| 1777431498 | 5.56° C | 85% | 1030 hPa | - | - | - | - |
| 1777430898 | 6.11° C | 84% | 1029.9 hPa | - | - | - | - |
| 1777430298 | 6.11° C | 84% | 1029.9 hPa | - | - | - | - |
| 1777429698 | 6.11° C | 86% | 1029.8 hPa | - | - | - | - |
| 1777429098 | 6.11° C | 86% | 1029.8 hPa | - | - | - | - |
| 1777428498 | 6.11° C | 84% | 1029.7 hPa | - | - | - | - |
| 1777427898 | 6.67° C | 82% | 1029.7 hPa | - | - | - | - |
| 1777427298 | 6.67° C | 83% | 1029.7 hPa | - | - | - | - |
| 1777426698 | 6.11° C | 86% | 1029.7 hPa | - | - | - | - |
| 1777426098 | 6.11° C | 85% | 1029.6 hPa | - | - | - | - |
| 1777425498 | 6.67° C | 85% | 1029.4 hPa | - | - | - | - |
| 1777424898 | 7.22° C | 85% | 1029.3 hPa | - | - | - | - |
| 1777424298 | 7.22° C | 85% | 1029.3 hPa | - | - | - | - |
| 1777423698 | 7.22° C | 84% | 1029.3 hPa | - | - | - | - |
| 1777423098 | 7.22° C | 84% | 1029.4 hPa | - | - | - | - |
| 1777422498 | 6.67° C | 85% | 1029.4 hPa | - | - | - | - |
| 1777421899 | 6.67° C | 85% | 1029.5 hPa | - | - | - | - |
* Rain since midnight (hover to see other rain measurements)
** Current wind speed in m/s (hover to see current wind gust speed)